createdAt,value
2018-04-27T00:00:19.724Z,99.90
2018-04-27T00:02:46.038Z,99.90
2018-04-27T00:05:13.158Z,99.90
2018-04-27T00:07:39.442Z,99.90
2018-04-27T00:10:05.745Z,99.90
2018-04-27T00:12:32.796Z,99.90
2018-04-27T00:14:59.840Z,99.90
2018-04-27T00:17:26.877Z,99.90
2018-04-27T00:19:53.174Z,99.90
2018-04-27T00:22:19.490Z,99.90
2018-04-27T00:24:45.778Z,99.90
2018-04-27T00:27:12.846Z,99.90
2018-04-27T00:29:39.141Z,99.90
2018-04-27T00:32:05.449Z,99.90
2018-04-27T00:34:31.733Z,99.90
2018-04-27T00:36:58.046Z,99.90
2018-04-27T00:39:25.073Z,99.90
2018-04-27T00:41:51.375Z,99.90
2018-04-27T00:44:17.666Z,99.90
2018-04-27T00:46:45.721Z,99.90
2018-04-27T00:49:12.793Z,99.90
2018-04-27T00:51:39.102Z,99.90
2018-04-27T00:54:06.131Z,99.90
2018-04-27T00:56:32.441Z,99.90
2018-04-27T00:58:58.732Z,99.90
2018-04-27T01:01:25.058Z,99.90
2018-04-27T01:03:51.350Z,99.90
2018-04-27T01:06:17.662Z,99.90
2018-04-27T01:08:43.949Z,99.90
2018-04-27T01:11:11.001Z,99.90
2018-04-27T01:13:37.316Z,99.90
2018-04-27T01:16:04.388Z,99.90
2018-04-27T01:18:30.692Z,99.90
2018-04-27T01:20:57.908Z,99.90
2018-04-27T01:23:24.390Z,99.90
2018-04-27T01:25:50.825Z,99.90
2018-04-27T01:28:17.266Z,99.90
2018-04-27T01:30:43.690Z,99.90
2018-04-27T01:33:10.086Z,99.90
2018-04-27T01:35:37.254Z,99.90
2018-04-27T01:38:04.389Z,99.90
2018-04-27T01:40:31.539Z,99.90
2018-04-27T01:42:58.702Z,99.90
2018-04-27T01:45:25.850Z,99.90
2018-04-27T01:47:53.029Z,99.90
2018-04-27T01:50:19.470Z,99.90
2018-04-27T01:52:45.894Z,99.90
2018-04-27T01:55:12.402Z,99.90
2018-04-27T01:57:39.578Z,99.90
2018-04-27T02:00:05.992Z,99.90
2018-04-27T02:02:32.418Z,99.90
2018-04-27T02:04:59.570Z,99.90
2018-04-27T02:07:26.761Z,99.90
2018-04-27T02:09:53.163Z,99.90
2018-04-27T02:12:19.545Z,99.90
2018-04-27T02:14:45.909Z,99.90
2018-04-27T02:17:14.110Z,99.90
2018-04-27T02:19:40.454Z,99.90
2018-04-27T02:22:06.841Z,99.90
2018-04-27T02:24:33.950Z,99.90
2018-04-27T02:27:01.391Z,99.90
2018-04-27T02:29:27.757Z,99.90
2018-04-27T02:31:54.154Z,99.90
2018-04-27T02:34:20.525Z,99.90
2018-04-27T02:36:46.921Z,99.90
2018-04-27T02:39:13.285Z,99.90
2018-04-27T02:41:39.682Z,99.90
2018-04-27T02:44:06.075Z,99.90
2018-04-27T02:46:33.209Z,99.90
2018-04-27T02:48:59.597Z,99.90
2018-04-27T02:51:25.987Z,99.90
2018-04-27T02:53:53.205Z,99.90
2018-04-27T02:56:19.592Z,99.90
2018-04-27T02:58:46.000Z,99.90
2018-04-27T03:01:13.117Z,99.90
2018-04-27T03:03:39.498Z,99.90
2018-04-27T03:06:06.598Z,99.90
2018-04-27T03:08:33.009Z,99.90
2018-04-27T03:10:59.385Z,99.90
2018-04-27T03:13:25.789Z,99.90
2018-04-27T03:15:52.153Z,99.90
2018-04-27T03:18:18.533Z,99.90
2018-04-27T03:20:44.905Z,99.90
2018-04-27T03:23:11.308Z,99.90
2018-04-27T03:25:37.673Z,99.90
2018-04-27T03:28:04.076Z,99.90
2018-04-27T03:30:30.449Z,99.90
2018-04-27T03:32:57.598Z,99.90
2018-04-27T03:35:23.973Z,99.90
2018-04-27T03:37:50.340Z,99.90
2018-04-27T03:40:16.764Z,99.90
2018-04-27T03:42:43.130Z,99.90
2018-04-27T03:45:10.261Z,99.90
2018-04-27T03:47:36.629Z,99.90
2018-04-27T03:50:03.057Z,99.90
2018-04-27T03:52:30.185Z,99.90
2018-04-27T03:54:56.578Z,99.90
2018-04-27T03:57:22.966Z,99.90
2018-04-27T04:00:02.366Z,99.90
2018-04-27T04:02:41.045Z,99.90
2018-04-27T04:05:34.501Z,99.90
2018-04-27T04:08:00.907Z,99.90
2018-04-27T04:10:27.265Z,99.90
2018-04-27T04:12:53.648Z,99.90
2018-04-27T04:15:20.030Z,99.90
2018-04-27T04:17:46.407Z,99.90
2018-04-27T04:20:12.765Z,99.90
2018-04-27T04:22:39.145Z,99.90
2018-04-27T04:25:05.531Z,99.90
2018-04-27T04:27:31.910Z,99.90
2018-04-27T04:29:58.308Z,99.90
2018-04-27T04:32:26.470Z,99.90
2018-04-27T04:34:52.834Z,99.90
2018-04-27T04:37:19.205Z,99.90
2018-04-27T04:39:45.573Z,99.90
2018-04-27T04:42:12.705Z,99.90
2018-04-27T04:44:39.065Z,99.90
2018-04-27T04:47:06.185Z,99.90
2018-04-27T04:49:32.593Z,99.90
2018-04-27T04:51:59.010Z,99.90
2018-04-27T04:54:25.398Z,99.90
2018-04-27T04:56:52.531Z,99.90
2018-04-27T04:59:18.889Z,99.90
2018-04-27T05:01:46.027Z,99.90
2018-04-27T05:04:13.165Z,99.90
2018-04-27T05:06:39.553Z,99.90
2018-04-27T05:09:05.948Z,99.90
2018-04-27T05:11:33.073Z,99.90
2018-04-27T05:13:59.479Z,99.90
2018-04-27T05:16:25.897Z,99.90
2018-04-27T05:18:56.044Z,99.90
2018-04-27T05:21:22.429Z,99.90
2018-04-27T05:23:50.603Z,99.90
2018-04-27T05:26:16.973Z,99.90
2018-04-27T05:28:43.368Z,99.90
2018-04-27T05:31:21.945Z,99.90
2018-04-27T05:33:48.365Z,99.90
2018-04-27T05:36:14.765Z,99.90
2018-04-27T05:38:41.144Z,99.90
2018-04-27T05:41:07.578Z,99.90
2018-04-27T05:43:33.981Z,99.90
2018-04-27T05:46:00.409Z,99.90
2018-04-27T05:48:26.829Z,99.90
2018-04-27T05:50:53.220Z,99.90
2018-04-27T05:53:19.660Z,99.90
2018-04-27T05:55:46.785Z,99.90
2018-04-27T05:58:13.229Z,99.90
2018-04-27T06:00:39.636Z,99.90
2018-04-27T06:03:06.025Z,99.90
2018-04-27T06:05:32.434Z,99.90
2018-04-27T06:07:59.846Z,99.90
2018-04-27T06:10:26.225Z,99.90
2018-04-27T06:12:53.357Z,99.90
2018-04-27T06:15:19.741Z,99.90
2018-04-27T06:17:46.148Z,99.90
2018-04-27T06:20:13.303Z,99.90
2018-04-27T06:22:40.483Z,99.90
2018-04-27T06:25:06.857Z,99.90
2018-04-27T06:27:33.281Z,99.90
2018-04-27T06:30:04.617Z,99.90
2018-04-27T06:32:31.037Z,99.90
2018-04-27T06:34:57.460Z,99.90
2018-04-27T06:37:23.833Z,99.90
2018-04-27T06:39:50.222Z,99.90
2018-04-27T06:42:16.639Z,99.90
2018-04-27T06:44:43.767Z,99.90
2018-04-27T06:47:11.961Z,99.90
2018-04-27T06:49:38.357Z,99.90
2018-04-27T06:52:04.759Z,99.90
2018-04-27T06:54:31.168Z,99.90
2018-04-27T06:56:57.573Z,99.90
2018-04-27T06:59:24.761Z,99.90
2018-04-27T07:01:52.198Z,99.90
2018-04-27T07:04:18.612Z,99.90
2018-04-27T07:06:45.028Z,99.90
2018-04-27T07:09:11.449Z,99.90
2018-04-27T07:11:37.922Z,99.90
2018-04-27T07:14:04.306Z,99.90
2018-04-27T07:16:32.445Z,99.90
2018-04-27T07:18:58.842Z,99.90
2018-04-27T07:21:25.224Z,99.90
2018-04-27T07:23:51.655Z,99.90
2018-04-27T07:26:18.054Z,99.90
2018-04-27T07:28:45.186Z,99.90
2018-04-27T07:31:11.598Z,99.90
2018-04-27T07:33:37.977Z,99.90
2018-04-27T07:36:05.141Z,99.90
2018-04-27T07:38:31.530Z,99.90
2018-04-27T07:40:57.937Z,99.90
2018-04-27T07:43:24.367Z,99.90
2018-04-27T07:45:50.810Z,99.90
2018-04-27T07:48:17.277Z,99.90
2018-04-27T07:50:44.418Z,99.90
2018-04-27T07:53:10.818Z,99.90
2018-04-27T07:55:37.224Z,99.90
2018-04-27T07:58:03.633Z,99.90
2018-04-27T08:00:30.885Z,99.90
2018-04-27T08:02:58.013Z,99.90
2018-04-27T08:05:24.434Z,99.90
2018-04-27T08:07:50.849Z,99.90
2018-04-27T08:10:17.285Z,99.90
2018-04-27T08:12:43.697Z,99.90
2018-04-27T08:15:10.120Z,99.90
2018-04-27T08:17:36.514Z,99.90
2018-04-27T08:20:03.692Z,99.90
2018-04-27T08:22:30.093Z,99.90
2018-04-27T08:24:56.505Z,99.90
2018-04-27T08:27:23.608Z,99.90
2018-04-27T08:29:50.009Z,99.90
2018-04-27T08:32:16.454Z,99.90
2018-04-27T08:34:43.580Z,99.90
2018-04-27T08:37:11.453Z,99.90
2018-04-27T08:39:37.826Z,99.90
2018-04-27T08:42:04.225Z,99.90
2018-04-27T08:44:30.650Z,99.90
2018-04-27T08:46:57.047Z,99.90
2018-04-27T08:49:23.484Z,99.90
2018-04-27T08:51:49.889Z,99.90
2018-04-27T08:54:17.294Z,99.90
2018-04-27T08:56:43.712Z,99.90
2018-04-27T08:59:10.129Z,99.90
2018-04-27T09:01:36.530Z,99.90
2018-04-27T09:04:03.673Z,99.90
2018-04-27T09:06:30.845Z,99.90
2018-04-27T09:08:57.245Z,99.90
2018-04-27T09:11:23.635Z,99.90
2018-04-27T09:13:50.025Z,99.90
2018-04-27T09:16:17.178Z,99.90
2018-04-27T09:18:43.557Z,99.90
2018-04-27T09:21:09.961Z,99.90
2018-04-27T09:23:36.353Z,99.90
2018-04-27T09:26:02.770Z,99.90
2018-04-27T09:28:29.160Z,99.90
2018-04-27T09:30:55.566Z,99.90
2018-04-27T09:33:23.707Z,99.90
2018-04-27T09:35:50.122Z,99.90
2018-04-27T09:38:16.520Z,99.90
2018-04-27T09:40:42.934Z,99.90
2018-04-27T09:43:10.041Z,99.90
2018-04-27T09:45:36.433Z,99.90
2018-04-27T09:48:02.874Z,99.90
2018-04-27T09:50:29.316Z,99.90
2018-04-27T09:52:55.688Z,99.90
2018-04-27T09:55:22.077Z,99.90
2018-04-27T09:57:48.457Z,99.90
2018-04-27T10:00:14.849Z,99.90
2018-04-27T10:02:42.245Z,99.90
2018-04-27T10:05:08.625Z,99.90
2018-04-27T10:07:35.024Z,99.90
2018-04-27T10:10:02.174Z,99.90
2018-04-27T10:12:29.294Z,99.90
2018-04-27T10:14:55.735Z,99.90
2018-04-27T10:17:22.112Z,99.90
2018-04-27T10:19:48.481Z,99.90
2018-04-27T10:22:14.890Z,99.90
2018-04-27T10:24:41.293Z,99.90
2018-04-27T10:27:08.390Z,99.90
2018-04-27T10:29:34.753Z,99.90
2018-04-27T10:32:01.153Z,99.90
2018-04-27T10:34:27.545Z,99.90
2018-04-27T10:36:54.637Z,99.90
2018-04-27T10:39:21.074Z,99.90
2018-04-27T10:41:47.461Z,99.90
2018-04-27T10:44:14.585Z,99.90
2018-04-27T10:46:40.993Z,99.90
2018-04-27T10:49:07.384Z,99.90
2018-04-27T10:51:33.765Z,99.90
2018-04-27T10:54:00.181Z,99.90
2018-04-27T10:56:26.569Z,99.90
2018-04-27T10:58:53.706Z,99.90
2018-04-27T11:01:20.882Z,99.90
2018-04-27T11:03:47.273Z,99.90
2018-04-27T11:06:13.647Z,99.90
2018-04-27T11:08:40.062Z,99.90
2018-04-27T11:11:07.229Z,98.00
2018-04-27T11:13:33.642Z,98.10
2018-04-27T11:16:00.798Z,99.90
2018-04-27T11:18:27.929Z,97.60
2018-04-27T11:20:54.313Z,97.50
2018-04-27T11:23:20.730Z,99.00
2018-04-27T11:25:48.149Z,98.00
2018-04-27T11:28:14.550Z,96.00
2018-04-27T11:30:40.978Z,97.70
2018-04-27T11:33:07.351Z,99.90
2018-04-27T11:35:34.520Z,99.00
2018-04-27T11:38:01.677Z,98.80
2018-04-27T11:40:28.090Z,98.70
2018-04-27T11:42:55.205Z,97.40
2018-04-27T11:45:21.632Z,97.40
2018-04-27T11:47:48.808Z,97.20
2018-04-27T11:50:15.169Z,97.20
2018-04-27T11:52:43.417Z,97.90
2018-04-27T11:55:09.822Z,97.90
2018-04-27T11:57:36.201Z,97.20
2018-04-27T12:00:03.358Z,97.80
2018-04-27T12:02:33.373Z,97.20
2018-04-27T12:05:00.566Z,95.00
2018-04-27T12:07:26.985Z,94.90
2018-04-27T12:09:53.377Z,96.70
2018-04-27T12:12:20.540Z,97.40
2018-04-27T12:14:47.693Z,95.80
2018-04-27T12:17:14.827Z,95.50
2018-04-27T12:19:41.945Z,96.70
2018-04-27T12:22:08.364Z,96.50
2018-04-27T12:24:34.733Z,97.70
2018-04-27T12:27:01.101Z,94.90
2018-04-27T12:29:27.489Z,97.00
2018-04-27T12:31:53.870Z,94.40
2018-04-27T12:34:20.280Z,95.60
2018-04-27T12:36:47.447Z,94.10
2018-04-27T12:39:13.827Z,94.00
2018-04-27T12:41:40.243Z,92.50
2018-04-27T12:44:06.658Z,90.50
2018-04-27T12:46:33.049Z,86.90
2018-04-27T12:49:00.173Z,83.10
2018-04-27T12:51:26.586Z,83.20
2018-04-27T12:53:52.969Z,82.40
2018-04-27T12:56:20.126Z,81.60
2018-04-27T12:58:47.237Z,74.30
2018-04-27T13:01:13.605Z,74.20
2018-04-27T13:03:40.696Z,70.50
2018-04-27T13:06:07.109Z,70.50
2018-04-27T13:08:33.505Z,65.60
2018-04-27T13:11:00.653Z,64.00
2018-04-27T13:13:27.797Z,62.70
2018-04-27T13:15:54.185Z,62.60
2018-04-27T13:18:20.830Z,62.70
2018-04-27T13:20:47.201Z,62.00
2018-04-27T13:23:14.312Z,62.70
2018-04-27T13:25:40.713Z,62.50
2018-04-27T13:28:07.113Z,62.90
2018-04-27T13:30:33.518Z,60.60
2018-04-27T13:32:59.909Z,60.90
2018-04-27T13:35:26.295Z,60.10
2018-04-27T13:37:52.718Z,58.00
2018-04-27T13:40:19.136Z,58.00
2018-04-27T13:42:45.549Z,56.50
2018-04-27T13:45:11.921Z,55.00
2018-04-27T13:47:38.321Z,57.70
2018-04-27T13:50:04.733Z,56.90
2018-04-27T13:52:31.105Z,56.50
2018-04-27T13:54:58.257Z,54.80
2018-04-27T13:57:25.430Z,54.20
2018-04-27T13:59:52.569Z,54.40
2018-04-27T14:02:18.979Z,54.30
2018-04-27T14:04:46.393Z,52.20
2018-04-27T14:07:13.542Z,51.70
2018-04-27T14:09:40.750Z,55.50
2018-04-27T14:12:07.090Z,55.40
2018-04-27T14:14:34.970Z,52.40
2018-04-27T14:17:01.364Z,52.40
2018-04-27T14:19:27.762Z,51.20
2018-04-27T14:21:54.881Z,53.30
2018-04-27T14:24:21.265Z,53.30
2018-04-27T14:26:47.725Z,49.90
2018-04-27T14:29:14.082Z,52.30
2018-04-27T14:31:40.461Z,53.80
2018-04-27T14:34:06.813Z,52.40
2018-04-27T14:36:33.544Z,48.80
2018-04-27T14:38:59.967Z,48.00
2018-04-27T14:41:26.366Z,49.30
2018-04-27T14:43:53.498Z,48.40
2018-04-27T14:46:19.848Z,48.40
2018-04-27T14:48:46.951Z,49.30
2018-04-27T14:51:13.399Z,49.30
2018-04-27T14:53:39.807Z,49.00
2018-04-27T14:56:06.221Z,48.00
2018-04-27T14:58:32.613Z,47.80
2018-04-27T15:00:59.753Z,47.30
2018-04-27T15:03:27.646Z,47.40
2018-04-27T15:05:55.562Z,46.50
2018-04-27T15:08:23.289Z,46.40
2018-04-27T15:10:49.677Z,44.20
2018-04-27T15:13:16.061Z,44.30
2018-04-27T15:15:42.489Z,45.00
2018-04-27T15:18:08.878Z,44.80
2018-04-27T15:20:35.273Z,45.00
2018-04-27T15:23:01.636Z,43.70
2018-04-27T15:25:29.579Z,43.50
2018-04-27T15:27:55.973Z,44.20
2018-04-27T15:30:23.103Z,43.50
2018-04-27T15:32:50.234Z,43.30
2018-04-27T15:35:16.639Z,43.20
2018-04-27T15:37:43.023Z,43.90
2018-04-27T15:40:10.182Z,44.90
2018-04-27T15:42:37.354Z,44.00
2018-04-27T15:45:03.742Z,44.00
2018-04-27T15:47:30.145Z,44.30
2018-04-27T15:49:56.549Z,44.40
2018-04-27T15:52:22.945Z,46.30
2018-04-27T15:54:49.337Z,50.00
2018-04-27T15:57:15.735Z,49.50
2018-04-27T15:59:42.202Z,53.80
2018-04-27T16:02:08.609Z,53.20
2018-04-27T16:04:35.002Z,54.70
2018-04-27T16:07:02.182Z,54.90
2018-04-27T16:09:28.585Z,54.90
2018-04-27T16:11:55.758Z,52.60
2018-04-27T16:14:24.015Z,52.50
2018-04-27T16:16:50.409Z,52.50
2018-04-27T16:19:16.817Z,52.10
2018-04-27T16:21:43.636Z,51.60
2018-04-27T16:24:10.834Z,49.80
2018-04-27T16:26:38.210Z,49.60
2018-04-27T16:29:04.621Z,48.40
2018-04-27T16:31:31.653Z,46.90
2018-04-27T16:33:58.219Z,46.70
2018-04-27T16:36:25.356Z,46.30
2018-04-27T16:38:52.474Z,45.40
2018-04-27T16:41:19.621Z,45.60
2018-04-27T16:43:46.755Z,45.30
2018-04-27T16:46:13.926Z,46.20
2018-04-27T16:48:40.291Z,45.80
2018-04-27T16:51:06.682Z,45.00
2018-04-27T16:53:33.817Z,44.20
2018-04-27T16:56:00.938Z,43.40
2018-04-27T16:58:27.333Z,43.30
2018-04-27T17:00:53.737Z,43.30
2018-04-27T17:03:20.889Z,42.70
2018-04-27T17:05:48.021Z,43.10
2018-04-27T17:08:15.917Z,42.60
2018-04-27T17:10:43.041Z,43.30
2018-04-27T17:13:09.429Z,43.30
2018-04-27T17:15:37.464Z,43.50
2018-04-27T17:18:05.637Z,43.70
2018-04-27T17:20:32.765Z,44.20
2018-04-27T17:22:59.169Z,44.20
2018-04-27T17:25:25.571Z,44.90
2018-04-27T17:27:51.962Z,45.30
2018-04-27T17:30:18.365Z,46.80
2018-04-27T17:32:44.749Z,48.40
2018-04-27T17:35:11.964Z,51.50
2018-04-27T17:37:38.371Z,51.40
2018-04-27T17:40:04.882Z,53.20
2018-04-27T17:42:31.280Z,53.70
2018-04-27T17:44:58.462Z,56.10
2018-04-27T17:47:24.852Z,56.00
2018-04-27T17:49:51.230Z,57.40
2018-04-27T17:52:17.633Z,57.70
2018-04-27T17:54:43.996Z,58.90
2018-04-27T17:57:10.403Z,59.40
2018-04-27T17:59:38.601Z,61.30
2018-04-27T18:02:05.090Z,61.10
2018-04-27T18:04:32.042Z,62.50
2018-04-27T18:06:58.453Z,63.40
2018-04-27T18:09:24.818Z,64.40
2018-04-27T18:11:53.504Z,66.10
2018-04-27T18:14:19.923Z,67.40
2018-04-27T18:16:46.377Z,66.80
2018-04-27T18:19:13.489Z,68.90
2018-04-27T18:21:39.902Z,68.80
2018-04-27T18:24:06.317Z,69.70
2018-04-27T18:26:32.730Z,70.40
2018-04-27T18:29:00.927Z,76.90
2018-04-27T18:31:27.314Z,76.10
2018-04-27T18:33:53.690Z,79.40
2018-04-27T18:36:20.103Z,83.10
2018-04-27T18:38:47.232Z,91.20
2018-04-27T18:41:14.348Z,93.70
2018-04-27T18:43:41.490Z,93.70
2018-04-27T18:46:07.882Z,97.00
2018-04-27T18:48:35.886Z,99.90
2018-04-27T18:51:02.315Z,99.90
2018-04-27T18:53:28.713Z,99.90
2018-04-27T18:55:55.845Z,99.90
2018-04-27T18:58:22.250Z,99.90
2018-04-27T19:00:48.650Z,99.90
2018-04-27T19:03:15.138Z,99.90
2018-04-27T19:05:41.517Z,99.90
2018-04-27T19:08:07.942Z,99.90
2018-04-27T19:10:35.150Z,99.90
2018-04-27T19:13:01.542Z,99.90
2018-04-27T19:15:28.720Z,99.90
2018-04-27T19:17:59.817Z,99.90
2018-04-27T19:20:26.249Z,99.90
2018-04-27T19:22:52.703Z,99.90
2018-04-27T19:25:19.169Z,99.90
2018-04-27T19:27:45.561Z,99.90
2018-04-27T19:30:11.977Z,99.90
2018-04-27T19:32:39.105Z,99.90
2018-04-27T19:35:05.525Z,99.90
2018-04-27T19:37:31.967Z,99.90
2018-04-27T19:39:58.365Z,99.90
2018-04-27T19:42:24.785Z,99.90
2018-04-27T19:44:51.219Z,99.90
2018-04-27T19:47:17.620Z,99.90
2018-04-27T19:49:44.793Z,99.90
2018-04-27T19:52:11.197Z,99.90
2018-04-27T19:54:38.353Z,99.90
2018-04-27T19:57:04.770Z,99.90
2018-04-27T19:59:31.914Z,99.90
2018-04-27T20:01:58.322Z,99.90
2018-04-27T20:04:24.713Z,99.90
2018-04-27T20:06:51.143Z,99.90
2018-04-27T20:09:17.546Z,99.90
2018-04-27T20:11:43.956Z,99.90
2018-04-27T20:14:10.765Z,99.90
2018-04-27T20:16:38.210Z,99.90
2018-04-27T20:19:05.417Z,99.90
2018-04-27T20:21:31.824Z,99.90
2018-04-27T20:24:05.057Z,99.90
2018-04-27T20:26:32.185Z,99.90
2018-04-27T20:28:58.575Z,99.90
2018-04-27T20:31:25.032Z,99.90
2018-04-27T20:33:51.581Z,99.90
2018-04-27T20:36:17.981Z,99.90
2018-04-27T20:38:44.387Z,99.90
2018-04-27T20:41:11.534Z,99.90
2018-04-27T20:43:39.934Z,99.90
2018-04-27T20:46:06.378Z,99.90
2018-04-27T20:48:34.030Z,99.90
2018-04-27T20:51:00.473Z,99.90
2018-04-27T20:53:27.851Z,99.90
2018-04-27T20:55:55.120Z,99.90
2018-04-27T20:58:21.562Z,99.90
2018-04-27T21:00:48.000Z,99.90
2018-04-27T21:03:15.455Z,99.90
2018-04-27T21:05:41.915Z,99.90
2018-04-27T21:08:08.301Z,99.90
2018-04-27T21:10:34.717Z,99.90
2018-04-27T21:13:01.109Z,99.90
2018-04-27T21:15:28.265Z,99.90
2018-04-27T21:17:54.782Z,99.90
2018-04-27T21:20:21.921Z,99.90
2018-04-27T21:22:48.373Z,99.90
2018-04-27T21:25:21.609Z,99.90
2018-04-27T21:27:48.033Z,99.90
2018-04-27T21:30:14.538Z,99.90
2018-04-27T21:32:40.886Z,99.90
2018-04-27T21:35:07.350Z,99.90
2018-04-27T21:37:53.629Z,99.90
2018-04-27T21:40:20.058Z,99.90
2018-04-27T21:42:46.465Z,99.90
2018-04-27T21:45:13.701Z,99.90
2018-04-27T21:47:43.899Z,99.90
2018-04-27T21:50:10.427Z,99.90
2018-04-27T21:52:38.702Z,99.90
2018-04-27T21:55:05.105Z,99.90
2018-04-27T22:00:30.286Z,99.90
2018-04-27T22:03:02.542Z,99.90
2018-04-27T22:05:31.866Z,99.90
2018-04-27T22:07:58.996Z,99.90
2018-04-27T22:10:25.418Z,99.90
2018-04-27T22:12:51.928Z,99.90
2018-04-27T22:15:19.203Z,99.90
2018-04-27T22:17:48.285Z,99.90
2018-04-27T22:20:20.889Z,99.90
2018-04-27T22:22:47.277Z,99.90
2018-04-27T22:25:15.653Z,99.90
2018-04-27T22:27:42.057Z,99.90
2018-04-27T22:30:15.034Z,99.90
2018-04-27T22:32:41.614Z,99.90
2018-04-27T22:35:09.028Z,99.90
2018-04-27T22:37:37.145Z,99.90
2018-04-27T22:40:05.189Z,99.90
2018-04-27T22:42:35.531Z,99.90
2018-04-27T22:45:16.915Z,99.90
2018-04-27T22:47:45.126Z,99.90
2018-04-27T22:50:12.485Z,99.90
2018-04-27T22:52:39.793Z,99.90
2018-04-27T22:55:07.814Z,99.90
2018-04-27T22:57:37.953Z,99.90
2018-04-27T23:00:08.809Z,99.90
2018-04-27T23:02:35.253Z,99.90
2018-04-27T23:05:04.501Z,99.90
2018-04-27T23:07:30.908Z,99.90
2018-04-27T23:09:57.364Z,99.90
2018-04-27T23:12:23.762Z,99.90
2018-04-27T23:14:50.189Z,99.90
2018-04-27T23:17:16.633Z,99.90
2018-04-27T23:19:47.869Z,99.90
2018-04-27T23:22:34.996Z,99.90
2018-04-27T23:25:12.113Z,99.90
2018-04-27T23:27:38.537Z,99.90
2018-04-27T23:30:05.797Z,99.90
2018-04-27T23:32:32.189Z,99.90
2018-04-27T23:34:58.589Z,99.90
2018-04-27T23:37:25.734Z,99.90
2018-04-27T23:39:53.741Z,99.90
2018-04-27T23:42:20.161Z,99.90
2018-04-27T23:44:46.570Z,99.90
2018-04-27T23:47:13.731Z,99.90
2018-04-27T23:49:40.145Z,99.90
2018-04-27T23:52:06.565Z,99.90
2018-04-27T23:54:32.953Z,99.90
2018-04-27T23:56:59.357Z,99.90
2018-04-27T23:59:26.532Z,99.90
